EBBR

Brussels Airport

Brussels, Belgium
METAR EBBR 231550Z 07012KT CAVOK 02/M08 Q1019 NOSIG
Observed Flight Rules
Feb-23 @ 15:50 UTC (44 minutes ago) Visual Flight Rules
Wind Visibility Clouds
70° at 12 knots 10,000+ meters
  • Clear skies
Temperatures Readings
Current 2°C / 36°F
Dewpoint -8°C / 18°F
Humidity 48%
Altimeter 30.09" Hg
Pressure 1019 hPa
Elevation 58
METAR EBBR 231550Z 07012KT CAVOK 02/M08 Q1019 NOSIG
Observed Flight Rules
Feb-23 @ 15:50 UTC
(44 minutes ago)
VFR
Wind Visibility
70° at 12 knots 10,000+ meters
Clouds
  • Clear skies
Temperature Dewpoint
2°C / 36°F -8°C / 18°F
Humidity Altimeter Pressure
48% 30.09" Hg 1019 hPa